METAR Data
IDs: Format: Raw Decoded Include TAF

Data at: 1512 UTC 18 Aug 2019

PAHN 181454Z AUTO 00000KT 10SM FEW085 09/03 A3002 RMK AO2 SLP168 T00940028 58001 TSNO
PAHN 181354Z AUTO 33009KT 290V030 10SM FEW090 12/M01 A3002 RMK AO2 SLP169 T01171011 TSNO
PAHN 181254Z AUTO VRB03KT 10SM FEW095 13/M03 A3002 RMK AO2 SLP169 T01331033 TSNO
PAHN 181154Z AUTO 32005KT 10SM BKN100 12/00 A3002 RMK AO2 SLP168 70031 T01170000 10144 20100 50006 TSNO
PAHN 181054Z AUTO 36003KT 10SM OVC100 11/03 A3002 RMK AO2 SLP169 T01060028 TSNO
PAHN 180954Z AUTO 00000KT 10SM OVC100 11/04 A3001 RMK SLP165 T01060039 TSNO VIA AUTODIAL
PAHN 180854Z AUTO 29005KT 10SM OVC100 11/03 A3000 RMK SLP163 T01110033 401890106 53009 TSNO VIA AUTODIAL
PAHN 180754Z AUTO VRB05KT 10SM OVC100 13/00 A2999 RMK AO2 SLP159 T01330000 TSNO
PAHN 180654Z AUTO 00000KT 10SM OVC100 13/02 A2999 RMK AO2 SLP157 T01280022 TSNO
PAHN 180554Z AUTO VRB04KT 10SM BKN100 12/04 A2998 RMK AO2 SLP154 T01170039 10189 20117 53020 TSNO
PAHN 180454Z AUTO VRB06KT 10SM OVC110 16/M02 A2995 RMK AO2 SLP145 T01561017 TSNO
PAHN 180354Z AUTO VRB05KT 10SM SCT100 14/04 A2994 RMK AO2 SLP141 T01390039 TSNO
PAHN 180254Z AUTO VRB06KT 10SM BKN100 17/M01 A2992 RMK AO2 SLP134 T01721006 53017 TSNO
PAHN 180154Z AUTO 29008KT 240V310 10SM BKN100 18/M01 A2989 RMK SLP123 T01781006 TSNO VIA AUTODIAL
PAHN 180054Z AUTO 30010G19KT 280V360 10SM OVC100 18/01 A2987 RMK AO2 SLP116 T01780011 TSNO
PAHN 172354Z AUTO VRB03KT 10SM BKN100 17/06 A2987 RMK AO2 SLP116 60001 T01720061 10178 20128 50010 TSNO
PAHN 172254Z AUTO VRB05KT 10SM FEW095 17/05 A2987 RMK SLP116 T01720050 TSNO VIA AUTODIAL
PAHN 172154Z AUTO 31011G17KT 280V350 10SM FEW080 17/07 A2986 RMK AO2 SLP113 T01670067 TSNO
PAHN 172054Z AUTO 33008KT 10SM FEW038 BKN070 BKN085 16/10 A2984 RMK AO2 RAB09E44 SLP106 P0000 60001 T01560100 55001 TSNO
PAHN 171954Z AUTO 32008KT 10SM OVC070 16/10 A2983 RMK AO2 SLP102 P0001 T01560100 TSNO
PAHN 171854Z AUTO 32011G16KT 10SM CLR 14/09 A2983 RMK AO2 RAE23 SLP102 P0000 T01390094 TSNO
PAHN 171754Z AUTO 32011G20KT 10SM -RA OVC090 13/10 A2984 RMK AO2 SLP107 P0000 60030 T01280100 10144 20128 56003 TSNO
PAHN 171654Z AUTO 33009KT 10SM -RA OVC085 13/11 A2984 RMK AO2 SLP108 P0001 T01330106 TSNO
PAHN 171554Z AUTO 31014G19KT 10SM -RA OVC080 14/12 A2984 RMK AO2 SLP107 P0002 T01390117 TSNO
PAHN 171454Z AUTO 31010KT 7SM -RA OVC075 14/13 A2985 RMK SLP110 P0004 60027 T01390128 55000 TSNO VIA AUTODIAL
PAHN 171432Z AUTO 32010KT 9SM -RA FEW007 OVC070 14/13 A2985 RMK AO2 P0002 T01440128 TSNO
PAHN 171406Z AUTO 32008KT 8SM -RA BKN006 OVC011 14/13 A2985 RMK AO2 P0001 T01440128 TSNO
PAHN 171354Z AUTO 33012KT 8SM -RA BKN010 BKN019 OVC075 14/13 A2985 RMK AO2 SLP109 P0005 T01440128 TSNO
PAHN 171257Z AUTO 30009KT 3SM RA BR SCT006 BKN035 OVC050 14/13 A2984 RMK AO2 P0000 T01390128 TSNO
PAHN 171254Z AUTO 29008KT 2 1/2SM RA BR SCT008 BKN022 OVC050 14/13 A2984 RMK AO2 SLP108 P0018 T01390128 TSNO
PAHN 171251Z AUTO 30008KT 2 1/2SM RA BR BKN008 BKN022 OVC050 14/13 A2984 RMK AO2 P0017 TSNO
PAHN 171239Z AUTO 30006KT 5SM -RA BR BKN006 OVC012 14/13 A2985 RMK AO2 P0013 T01390128 TSNO
PAHN 171223Z AUTO 30006KT 3SM RA BR OVC010 14/13 A2985 RMK AO2 P0010 T01440133 TSNO
PAHN 171212Z AUTO 30005KT 2 1/2SM RA BR BKN010 OVC033 14/13 A2985 RMK AO2 P0006 T01390128 TSNO
PAHN 171154Z AUTO 00000KT 5SM -RA BR BKN010 OVC034 14/13 A2985 RMK AO2 SLP110 P0006 60018 70018 T01440133 10183 20144 56024 TSNO
PAHN 171054Z AUTO 06006KT 9SM -RA BKN011 OVC034 15/13 A2987 RMK AO2 SLP117 P0002 T01500133 TSNO
PAHN 171021Z AUTO VRB03KT 10SM -RA BKN011 BKN031 OVC038 15/13 A2988 RMK AO2 P0002 T01500133 TSNO
PAHN 170954Z AUTO 07004KT 9SM -RA FEW013 BKN032 OVC090 15/13 A2989 RMK AO2 SLP125 P0005 T01500133 TSNO
PAHN 170854Z AUTO 07006KT 8SM -RA SCT044 SCT060 OVC075 16/13 A2992 RMK AO2 SLP135 P0005 60005 T01560133 402170094 58010 TSNO
PAHN 170754Z AUTO 07007KT 10SM -RA SCT060 OVC085 17/13 A2993 RMK AO2 RAB12 SLP138 P0000 T01670128 TSNO
PAHN 170654Z AUTO 09009KT 040V110 10SM OVC080 18/12 A2994 RMK AO2 SLP142 T01780122 TSNO
PAHN 170554Z AUTO 08010G16KT 10SM OVC085 18/12 A2995 RMK AO2 SLP144 T01830117 10211 20183 56013 TSNO
PAHN 170454Z AUTO 10007KT 10SM SCT060 BKN085 18/12 A2995 RMK AO2 SLP146 T01830122 TSNO
PAHN 170354Z AUTO 08009G16KT 060V130 10SM CLR 19/12 A2997 RMK AO2 SLP150 T01890122 TSNO